createdAt,value
2023-06-18T00:00:10.373Z,7.65
2023-06-18T00:02:37.719Z,7.20
2023-06-18T00:05:05.645Z,7.38
2023-06-18T00:07:33.029Z,7.22
2023-06-18T00:10:00.500Z,7.25
2023-06-18T00:12:27.761Z,7.60
2023-06-18T00:14:55.153Z,7.03
2023-06-18T00:17:24.724Z,7.45
2023-06-18T00:19:52.302Z,7.38
2023-06-18T00:22:19.687Z,7.47
2023-06-18T00:24:46.965Z,8.20
2023-06-18T00:27:14.534Z,8.00
2023-06-18T00:29:41.953Z,8.43
2023-06-18T00:32:09.350Z,8.48
2023-06-18T00:34:39.125Z,8.80
2023-06-18T00:37:10.726Z,8.10
2023-06-18T00:39:38.843Z,8.40
2023-06-18T00:42:12.246Z,8.60
2023-06-18T00:44:41.804Z,8.60
2023-06-18T00:47:13.741Z,8.13
2023-06-18T00:49:45.316Z,8.23
2023-06-18T00:54:46.090Z,8.25
2023-06-18T00:57:18.701Z,8.52
2023-06-18T00:59:46.320Z,9.32
2023-06-18T01:02:14.225Z,8.98
2023-06-18T01:04:42.795Z,9.57
2023-06-18T01:07:14.418Z,8.52
2023-06-18T01:09:54.217Z,9.02
2023-06-18T01:12:28.751Z,9.63
2023-06-18T01:15:01.273Z,9.20
2023-06-18T01:17:35.033Z,8.23
2023-06-18T01:20:11.830Z,8.88
2023-06-18T01:22:54.460Z,9.23
2023-06-18T01:25:23.836Z,9.20
2023-06-18T01:27:51.471Z,9.05
2023-06-18T01:30:19.202Z,8.55
2023-06-18T01:32:49.508Z,8.48
2023-06-18T01:35:17.887Z,8.40
2023-06-18T01:38:09.547Z,8.25
2023-06-18T01:40:50.770Z,8.10
2023-06-18T01:43:28.648Z,8.77
2023-06-18T01:46:07.878Z,8.15
2023-06-18T01:48:52.837Z,9.02
2023-06-18T01:51:22.086Z,8.32
2023-06-18T01:53:56.309Z,8.50
2023-06-18T01:56:24.885Z,8.27
2023-06-18T01:58:54.397Z,8.52
2023-06-18T02:01:22.375Z,8.95
2023-06-18T02:03:49.841Z,8.60
2023-06-18T02:06:19.792Z,7.88
2023-06-18T02:08:49.579Z,8.43
2023-06-18T02:11:18.999Z,8.32
2023-06-18T02:13:48.673Z,8.48
2023-06-18T02:16:16.068Z,8.80
2023-06-18T02:18:45.572Z,8.73
2023-06-18T02:21:12.857Z,8.90
2023-06-18T02:23:40.186Z,9.00
2023-06-18T02:26:09.911Z,9.63
2023-06-18T02:28:37.284Z,8.88
2023-06-18T02:31:07.048Z,8.70
2023-06-18T02:33:34.404Z,9.10
2023-06-18T02:36:03.867Z,8.32
2023-06-18T02:38:31.128Z,8.48
2023-06-18T02:40:58.549Z,9.38
2023-06-18T02:43:32.234Z,8.77
2023-06-18T02:46:02.162Z,8.70
2023-06-18T02:48:29.532Z,8.57
2023-06-18T02:50:59.508Z,8.55
2023-06-18T02:53:26.832Z,9.13
2023-06-18T02:55:54.125Z,8.85
2023-06-18T02:58:29.268Z,8.70
2023-06-18T03:01:00.997Z,8.77
2023-06-18T03:03:31.220Z,8.50
2023-06-18T03:05:59.168Z,8.70
2023-06-18T03:08:29.120Z,8.35
2023-06-18T03:10:56.452Z,9.02
2023-06-18T03:13:23.833Z,8.25
2023-06-18T03:15:51.189Z,8.55
2023-06-18T03:18:18.464Z,8.75
2023-06-18T03:20:48.173Z,8.50
2023-06-18T03:23:15.636Z,8.98
2023-06-18T03:25:43.119Z,8.82
2023-06-18T03:28:14.878Z,8.43
2023-06-18T03:30:42.391Z,8.70
2023-06-18T03:33:10.048Z,8.60
2023-06-18T03:35:39.933Z,8.40
2023-06-18T03:38:09.798Z,9.40
2023-06-18T03:40:37.117Z,8.32
2023-06-18T03:43:04.398Z,8.23
2023-06-18T03:45:31.761Z,8.40
2023-06-18T03:48:01.713Z,8.35
2023-06-18T03:50:29.251Z,8.02
2023-06-18T03:52:56.775Z,8.65
2023-06-18T03:55:28.719Z,8.65
2023-06-18T03:57:56.010Z,8.77
2023-06-18T04:00:23.522Z,8.30
2023-06-18T04:02:53.379Z,8.85
2023-06-18T04:05:23.025Z,8.38
2023-06-18T04:07:50.344Z,8.65
2023-06-18T04:10:17.733Z,8.85
2023-06-18T04:12:47.605Z,8.73
2023-06-18T04:15:19.358Z,8.88
2023-06-18T04:17:46.667Z,9.07
2023-06-18T04:20:14.108Z,8.75
2023-06-18T04:22:41.589Z,8.20
2023-06-18T04:25:09.387Z,8.40
2023-06-18T04:27:40.690Z,8.15
2023-06-18T04:30:09.143Z,9.18
2023-06-18T04:32:36.641Z,8.70
2023-06-18T04:35:06.821Z,8.55
2023-06-18T04:37:34.123Z,8.93
2023-06-18T04:40:05.302Z,9.15
2023-06-18T04:42:32.675Z,9.13
2023-06-18T04:45:00.414Z,8.88
2023-06-18T04:47:27.850Z,9.15
2023-06-18T04:49:55.202Z,9.32
2023-06-18T04:52:22.815Z,9.18
2023-06-18T04:54:50.211Z,10.35
2023-06-18T04:57:18.658Z,9.70
2023-06-18T04:59:46.089Z,8.85
2023-06-18T05:02:13.460Z,10.95
2023-06-18T05:04:43.889Z,9.30
2023-06-18T05:07:11.648Z,9.05
2023-06-18T05:09:38.951Z,10.07
2023-06-18T05:12:06.773Z,9.10
2023-06-18T05:14:36.296Z,9.93
2023-06-18T05:17:03.819Z,9.45
2023-06-18T05:19:33.523Z,9.80
2023-06-18T05:22:00.921Z,10.40
2023-06-18T05:24:30.714Z,9.98
2023-06-18T05:26:58.035Z,10.05
2023-06-18T05:29:25.326Z,10.15
2023-06-18T05:31:55.493Z,9.63
2023-06-18T05:34:22.758Z,10.93
2023-06-18T05:36:52.510Z,10.38
2023-06-18T05:39:19.799Z,9.95
2023-06-18T05:41:52.820Z,10.68
2023-06-18T05:44:22.887Z,10.20
2023-06-18T05:46:50.175Z,10.05
2023-06-18T05:49:17.630Z,10.32
2023-06-18T05:51:47.163Z,9.60
2023-06-18T05:54:14.718Z,10.10
2023-06-18T05:56:42.032Z,10.73
2023-06-18T05:59:09.329Z,10.57
2023-06-18T06:01:37.396Z,10.75
2023-06-18T06:04:05.280Z,10.45
2023-06-18T06:06:35.290Z,10.25
2023-06-18T06:09:02.582Z,11.23
2023-06-18T06:11:39.897Z,10.02
2023-06-18T06:14:13.805Z,10.40
2023-06-18T06:16:43.611Z,11.35
2023-06-18T06:19:10.907Z,11.70
2023-06-18T06:21:38.222Z,11.05
2023-06-18T06:24:05.810Z,10.35
2023-06-18T06:26:33.252Z,10.18
2023-06-18T06:29:02.150Z,10.60
2023-06-18T06:31:29.463Z,10.13
2023-06-18T06:33:58.972Z,9.95
2023-06-18T06:36:26.428Z,10.70
2023-06-18T06:38:53.713Z,9.68
2023-06-18T06:41:21.029Z,9.10
2023-06-18T06:43:52.052Z,9.88
2023-06-18T06:46:19.432Z,9.90
2023-06-18T06:48:46.801Z,9.43
2023-06-18T06:51:14.100Z,9.00
2023-06-18T06:53:41.574Z,9.55
2023-06-18T06:56:10.360Z,9.50
2023-06-18T06:58:42.298Z,8.13
2023-06-18T07:01:09.632Z,9.00
2023-06-18T07:03:41.958Z,8.82
2023-06-18T07:06:09.293Z,8.68
2023-06-18T07:08:39.524Z,10.32
2023-06-18T07:11:09.457Z,9.68
2023-06-18T07:13:39.513Z,9.18
2023-06-18T07:16:09.088Z,9.23
2023-06-18T07:18:38.730Z,9.50
2023-06-18T07:21:06.061Z,8.40
2023-06-18T07:23:36.073Z,8.70
2023-06-18T07:26:04.729Z,9.10
2023-06-18T07:28:34.289Z,9.55
2023-06-18T07:31:06.743Z,9.13
2023-06-18T07:33:34.038Z,9.63
2023-06-18T07:36:03.717Z,9.63
2023-06-18T07:38:31.133Z,8.57
2023-06-18T07:40:58.432Z,9.27
2023-06-18T07:43:28.169Z,9.20
2023-06-18T07:45:55.476Z,9.48
2023-06-18T07:48:22.802Z,9.57
2023-06-18T07:50:52.391Z,9.02
2023-06-18T07:53:19.679Z,9.55
2023-06-18T07:55:47.050Z,8.23
2023-06-18T07:58:14.344Z,8.20
2023-06-18T08:00:43.761Z,8.45
2023-06-18T08:03:11.071Z,7.68
2023-06-18T08:05:38.434Z,7.90
2023-06-18T08:08:05.913Z,7.47
2023-06-18T08:10:37.684Z,7.82
2023-06-18T08:13:05.096Z,7.63
2023-06-18T08:15:32.408Z,7.55
2023-06-18T08:17:59.787Z,8.13
2023-06-18T08:20:29.297Z,7.90
2023-06-18T08:22:59.461Z,7.47
2023-06-18T08:25:26.897Z,8.75
2023-06-18T08:27:57.717Z,7.45
2023-06-18T08:30:25.716Z,7.28
2023-06-18T08:32:58.205Z,8.00
2023-06-18T08:35:25.656Z,7.97
2023-06-18T08:37:52.989Z,7.80
2023-06-18T08:40:26.050Z,7.68
2023-06-18T08:43:06.187Z,7.35
2023-06-18T08:48:19.362Z,7.53
2023-06-18T08:51:06.300Z,7.40
2023-06-18T08:53:55.264Z,7.28
2023-06-18T08:56:28.434Z,7.70
2023-06-18T08:58:58.639Z,7.85
2023-06-18T09:01:28.283Z,6.88
2023-06-18T09:03:59.640Z,7.28
2023-06-18T09:08:59.574Z,6.45
2023-06-18T09:11:32.383Z,6.85
2023-06-18T09:14:02.662Z,7.40
2023-06-18T09:16:30.000Z,6.22
2023-06-18T09:18:57.787Z,6.72
2023-06-18T09:21:43.729Z,6.82
2023-06-18T09:24:21.343Z,6.50
2023-06-18T09:26:54.374Z,6.43
2023-06-18T09:29:28.031Z,6.35
2023-06-18T09:31:55.478Z,6.38
2023-06-18T09:34:25.117Z,6.40
2023-06-18T09:36:52.419Z,5.72
2023-06-18T09:39:25.517Z,6.00
2023-06-18T09:41:58.533Z,6.00
2023-06-18T09:44:28.158Z,5.60
2023-06-18T09:47:01.328Z,5.82
2023-06-18T09:49:32.017Z,6.30
2023-06-18T09:52:01.615Z,5.30
2023-06-18T09:54:39.724Z,5.50
2023-06-18T09:57:08.498Z,5.30
2023-06-18T09:59:38.588Z,8.90
2023-06-18T10:02:08.039Z,5.65
2023-06-18T10:04:35.571Z,6.03
2023-06-18T10:07:09.054Z,5.07
2023-06-18T10:09:41.079Z,4.72
2023-06-18T10:12:11.607Z,4.80
2023-06-18T10:14:40.242Z,4.45
2023-06-18T10:17:29.653Z,5.00
2023-06-18T10:20:10.747Z,5.20
2023-06-18T10:23:03.577Z,4.65
2023-06-18T10:25:32.036Z,4.30
2023-06-18T10:28:00.244Z,4.80
2023-06-18T10:30:28.879Z,4.30
2023-06-18T10:32:56.974Z,4.13
2023-06-18T10:35:25.264Z,4.05
2023-06-18T10:37:53.216Z,4.47
2023-06-18T10:40:21.609Z,4.28
2023-06-18T10:42:50.325Z,3.47
2023-06-18T10:45:20.304Z,3.45
2023-06-18T10:47:47.893Z,3.85
2023-06-18T10:50:18.159Z,3.65
2023-06-18T10:52:50.756Z,3.80
2023-06-18T10:55:27.966Z,3.80
2023-06-18T10:58:04.680Z,4.20
2023-06-18T11:00:45.430Z,4.13
2023-06-18T11:03:16.016Z,4.30
2023-06-18T11:05:55.127Z,4.00
2023-06-18T11:08:28.271Z,3.90
2023-06-18T11:11:09.307Z,3.90
2023-06-18T11:13:41.649Z,3.95
2023-06-18T11:16:17.432Z,3.70
2023-06-18T11:18:47.893Z,4.20
2023-06-18T11:21:20.184Z,3.53
2023-06-18T11:23:49.094Z,3.75
2023-06-18T11:26:23.763Z,3.60
2023-06-18T11:28:53.922Z,4.20
2023-06-18T11:31:21.336Z,3.93
2023-06-18T11:33:50.821Z,3.80
2023-06-18T11:36:21.787Z,3.85
2023-06-18T11:38:52.869Z,4.13
2023-06-18T11:43:51.450Z,4.50
2023-06-18T11:46:30.270Z,4.05
2023-06-18T11:49:00.669Z,3.92
2023-06-18T11:51:30.294Z,4.30
2023-06-18T11:54:00.299Z,4.10
2023-06-18T11:56:30.696Z,4.38
2023-06-18T11:59:01.038Z,3.97
2023-06-18T12:01:33.247Z,3.88
2023-06-18T12:04:09.835Z,3.67
2023-06-18T12:06:41.751Z,3.80
2023-06-18T12:09:13.346Z,3.75
2023-06-18T12:11:49.977Z,3.90
2023-06-18T12:14:45.453Z,3.80
2023-06-18T12:17:29.464Z,3.85
2023-06-18T12:20:08.385Z,3.40
2023-06-18T12:22:39.734Z,3.67
2023-06-18T12:25:10.498Z,3.42
2023-06-18T12:30:09.540Z,3.85
2023-06-18T12:32:38.183Z,3.30
2023-06-18T12:35:18.750Z,3.25
2023-06-18T12:37:49.704Z,3.50
2023-06-18T12:40:25.856Z,3.30
2023-06-18T12:42:53.572Z,3.17
2023-06-18T12:45:29.317Z,3.50
2023-06-18T12:48:00.905Z,3.15
2023-06-18T12:50:30.526Z,3.40
2023-06-18T12:53:00.191Z,3.88
2023-06-18T12:55:29.026Z,3.30
2023-06-18T12:57:56.316Z,2.80
2023-06-18T13:00:27.940Z,3.20
2023-06-18T13:02:55.361Z,3.10
2023-06-18T13:05:23.911Z,3.33
2023-06-18T13:07:53.068Z,3.28
2023-06-18T13:10:23.971Z,3.17
2023-06-18T13:12:51.254Z,3.00
2023-06-18T13:15:21.241Z,3.30
2023-06-18T13:20:15.977Z,3.25
2023-06-18T13:22:45.761Z,2.90
2023-06-18T13:25:16.282Z,3.47
2023-06-18T13:27:43.929Z,3.13
2023-06-18T13:30:11.678Z,2.80
2023-06-18T13:32:39.267Z,3.40
2023-06-18T13:35:07.230Z,3.10
2023-06-18T13:37:37.095Z,3.22
2023-06-18T13:40:05.309Z,3.13
2023-06-18T13:42:32.631Z,3.05
2023-06-18T13:45:02.972Z,3.13
2023-06-18T13:49:57.965Z,3.35
2023-06-18T13:52:25.445Z,2.90
2023-06-18T13:54:52.788Z,3.35
2023-06-18T13:57:20.128Z,3.25
2023-06-18T13:59:52.043Z,3.55
2023-06-18T14:02:19.348Z,3.55
2023-06-18T14:04:47.475Z,3.80
2023-06-18T14:07:14.855Z,3.95
2023-06-18T14:09:44.796Z,3.75
2023-06-18T14:12:12.189Z,3.75
2023-06-18T14:14:42.159Z,3.88
2023-06-18T14:17:12.615Z,3.72
2023-06-18T14:19:41.078Z,6.78
2023-06-18T14:22:10.924Z,5.13
2023-06-18T14:24:42.843Z,4.13
2023-06-18T14:27:12.373Z,4.30
2023-06-18T14:29:39.809Z,4.25
2023-06-18T14:32:07.421Z,4.00
2023-06-18T14:34:34.720Z,4.18
2023-06-18T14:37:02.011Z,4.50
2023-06-18T14:39:32.139Z,4.40
2023-06-18T14:42:04.335Z,4.60
2023-06-18T14:44:33.829Z,4.22
2023-06-18T14:47:03.555Z,4.45
2023-06-18T14:49:31.048Z,4.13
2023-06-18T14:52:00.713Z,4.07
2023-06-18T14:54:28.165Z,4.20
2023-06-18T14:56:55.566Z,3.97
2023-06-18T14:59:22.889Z,4.20
2023-06-18T15:01:50.344Z,3.60
2023-06-18T15:04:18.040Z,4.07
2023-06-18T15:06:47.683Z,4.13
2023-06-18T15:09:15.033Z,3.95
2023-06-18T15:11:42.334Z,4.13
2023-06-18T15:14:09.601Z,4.28
2023-06-18T15:16:39.190Z,4.30
2023-06-18T15:19:11.110Z,3.72
2023-06-18T15:21:40.705Z,3.92
2023-06-18T15:24:10.603Z,3.85
2023-06-18T15:26:37.878Z,3.90
2023-06-18T15:29:06.275Z,4.20
2023-06-18T15:31:33.598Z,4.30
2023-06-18T15:34:02.950Z,3.95
2023-06-18T15:36:30.460Z,3.65
2023-06-18T15:39:00.912Z,4.30
2023-06-18T15:41:28.342Z,3.95
2023-06-18T15:43:55.796Z,4.18
2023-06-18T15:46:23.106Z,3.88
2023-06-18T15:48:50.454Z,4.05
2023-06-18T15:51:17.824Z,3.90
2023-06-18T15:53:45.157Z,4.50
2023-06-18T15:56:14.897Z,4.15
2023-06-18T15:58:42.159Z,4.63
2023-06-18T16:01:09.428Z,3.80
2023-06-18T16:03:40.021Z,4.30
2023-06-18T16:06:07.368Z,3.83
2023-06-18T16:08:34.861Z,4.18
2023-06-18T16:11:02.211Z,4.15
2023-06-18T16:13:31.830Z,4.40
2023-06-18T16:15:59.417Z,4.75
2023-06-18T16:18:26.836Z,4.68
2023-06-18T16:20:54.116Z,4.35
2023-06-18T16:23:21.831Z,3.70
2023-06-18T16:25:49.103Z,4.18
2023-06-18T16:28:17.209Z,4.45
2023-06-18T16:30:44.522Z,4.50
2023-06-18T16:33:11.828Z,3.88
2023-06-18T16:35:39.170Z,4.10
2023-06-18T16:38:06.543Z,4.20
2023-06-18T16:40:34.213Z,3.88
2023-06-18T16:43:06.425Z,4.15
2023-06-18T16:45:33.793Z,4.00
2023-06-18T16:48:02.269Z,3.90
2023-06-18T16:50:31.690Z,4.40
2023-06-18T16:53:01.865Z,4.05
2023-06-18T16:55:29.310Z,4.10
2023-06-18T16:57:58.963Z,4.55
2023-06-18T17:00:26.331Z,4.05
2023-06-18T17:02:56.413Z,3.90
2023-06-18T17:05:25.194Z,4.45
2023-06-18T17:07:52.811Z,4.57
2023-06-18T17:10:22.524Z,4.55
2023-06-18T17:12:49.982Z,4.57
2023-06-18T17:15:18.474Z,4.07
2023-06-18T17:17:48.056Z,4.15
2023-06-18T17:20:17.777Z,4.47
2023-06-18T17:22:45.077Z,3.78
2023-06-18T17:25:15.425Z,4.35
2023-06-18T17:27:42.806Z,4.00
2023-06-18T17:30:10.908Z,4.38
2023-06-18T17:32:38.283Z,3.97
2023-06-18T17:35:08.489Z,3.80
2023-06-18T17:37:36.138Z,4.00
2023-06-18T17:40:06.530Z,3.97
2023-06-18T17:42:33.892Z,3.90
2023-06-18T17:45:01.261Z,4.18
2023-06-18T17:47:30.952Z,4.07
2023-06-18T17:49:58.795Z,3.65
2023-06-18T17:52:28.689Z,3.75
2023-06-18T17:54:55.943Z,3.60
2023-06-18T17:57:25.942Z,3.90
2023-06-18T17:59:53.331Z,4.05
2023-06-18T18:02:20.753Z,4.15
2023-06-18T18:04:48.230Z,4.20
2023-06-18T18:07:15.706Z,4.40
2023-06-18T18:09:43.239Z,4.18
2023-06-18T18:12:12.855Z,3.85
2023-06-18T18:14:40.938Z,4.45
2023-06-18T18:17:10.942Z,3.65
2023-06-18T18:19:45.332Z,4.60
2023-06-18T18:22:17.413Z,4.15
2023-06-18T18:24:47.366Z,4.25
2023-06-18T18:27:17.116Z,4.30
2023-06-18T18:29:44.446Z,3.90
2023-06-18T18:32:12.010Z,4.40
2023-06-18T18:34:39.460Z,3.90
2023-06-18T18:37:07.229Z,4.18
2023-06-18T18:39:34.681Z,4.22
2023-06-18T18:42:02.119Z,3.97
2023-06-18T18:44:29.402Z,4.15
2023-06-18T18:46:56.814Z,4.38
2023-06-18T18:49:27.808Z,4.13
2023-06-18T18:51:57.495Z,3.95
2023-06-18T18:54:27.165Z,4.20
2023-06-18T18:56:54.531Z,4.57
2023-06-18T18:59:22.774Z,4.20
2023-06-18T19:01:50.281Z,4.55
2023-06-18T19:04:17.621Z,4.20
2023-06-18T19:06:47.308Z,4.25
2023-06-18T19:09:14.661Z,4.43
2023-06-18T19:11:45.030Z,4.35
2023-06-18T19:14:12.353Z,4.82
2023-06-18T19:16:42.871Z,5.05
2023-06-18T19:19:10.375Z,4.93
2023-06-18T19:21:39.934Z,5.40
2023-06-18T19:24:07.288Z,5.10
2023-06-18T19:26:37.043Z,5.28
2023-06-18T19:29:05.889Z,5.28
2023-06-18T19:31:33.298Z,6.22
2023-06-18T19:34:06.168Z,5.50
2023-06-18T19:36:33.547Z,5.85
2023-06-18T19:39:01.375Z,5.30
2023-06-18T19:41:28.791Z,5.40
2023-06-18T19:43:58.694Z,5.57
2023-06-18T19:46:28.300Z,5.82
2023-06-18T19:48:55.666Z,5.28
2023-06-18T19:51:23.088Z,5.20
2023-06-18T19:53:50.418Z,5.85
2023-06-18T19:56:20.235Z,5.60
2023-06-18T19:58:47.522Z,5.93
2023-06-18T20:01:14.821Z,5.65
2023-06-18T20:03:44.896Z,5.97
2023-06-18T20:06:12.709Z,5.88
2023-06-18T20:08:42.665Z,5.38
2023-06-18T20:11:09.977Z,6.13
2023-06-18T20:13:37.360Z,5.88
2023-06-18T20:16:04.882Z,6.05
2023-06-18T20:18:34.735Z,5.85
2023-06-18T20:21:02.458Z,5.97
2023-06-18T20:23:31.328Z,6.47
2023-06-18T20:25:58.740Z,6.35
2023-06-18T20:28:28.545Z,6.40
2023-06-18T20:30:55.848Z,7.78
2023-06-18T20:33:23.207Z,7.47
2023-06-18T20:35:50.511Z,7.65
2023-06-18T20:38:20.832Z,7.22
2023-06-18T20:40:48.121Z,7.33
2023-06-18T20:43:16.719Z,6.70
2023-06-18T20:45:47.171Z,6.10
2023-06-18T20:48:17.272Z,5.95
2023-06-18T20:50:47.185Z,6.13
2023-06-18T20:53:14.589Z,6.07
2023-06-18T20:55:41.911Z,5.82
2023-06-18T20:58:09.273Z,5.93
2023-06-18T21:00:36.566Z,6.38
2023-06-18T21:03:04.133Z,6.60
2023-06-18T21:05:33.745Z,6.63
2023-06-18T21:08:03.592Z,6.55
2023-06-18T21:10:33.905Z,6.65
2023-06-18T21:13:03.445Z,7.33
2023-06-18T21:15:30.731Z,6.70
2023-06-18T21:18:00.269Z,7.32
2023-06-18T21:20:28.679Z,6.80
2023-06-18T21:22:58.573Z,6.68
2023-06-18T21:25:27.107Z,6.60
2023-06-18T21:27:57.427Z,6.53
2023-06-18T21:30:27.389Z,6.68
2023-06-18T21:32:54.800Z,6.75
2023-06-18T21:35:22.179Z,6.43
2023-06-18T21:37:49.463Z,6.68
2023-06-18T21:40:19.243Z,6.57
2023-06-18T21:42:51.552Z,6.22
2023-06-18T21:45:21.364Z,6.32
2023-06-18T21:47:51.157Z,6.00
2023-06-18T21:50:18.602Z,6.18
2023-06-18T21:52:48.125Z,7.28
2023-06-18T21:55:18.532Z,7.15
2023-06-18T21:57:45.893Z,6.67
2023-06-18T22:00:14.771Z,6.03
2023-06-18T22:02:42.164Z,6.05
2023-06-18T22:05:09.674Z,5.53
2023-06-18T22:07:37.144Z,6.20
2023-06-18T22:10:04.771Z,5.80
2023-06-18T22:12:34.532Z,5.97
2023-06-18T22:15:04.207Z,6.45
2023-06-18T22:17:31.674Z,6.63
2023-06-18T22:20:01.305Z,6.50
2023-06-18T22:22:28.666Z,6.40
2023-06-18T22:24:58.442Z,6.95
2023-06-18T22:27:28.276Z,6.40
2023-06-18T22:29:58.664Z,5.90
2023-06-18T22:32:26.167Z,6.00
2023-06-18T22:34:55.815Z,6.35
2023-06-18T22:37:23.238Z,6.50
2023-06-18T22:39:51.076Z,6.35
2023-06-18T22:42:21.198Z,6.38
2023-06-18T22:44:48.476Z,6.50
2023-06-18T22:47:18.462Z,6.32
2023-06-18T22:49:48.433Z,6.53
2023-06-18T22:52:16.008Z,6.82
2023-06-18T22:54:45.738Z,7.10
2023-06-18T22:57:15.251Z,7.28
2023-06-18T22:59:42.526Z,6.70
2023-06-18T23:02:09.874Z,7.35
2023-06-18T23:04:39.573Z,6.85
2023-06-18T23:07:09.341Z,7.30
2023-06-18T23:09:38.806Z,7.15
2023-06-18T23:12:09.032Z,6.97
2023-06-18T23:14:38.645Z,7.50
2023-06-18T23:17:06.099Z,6.82
2023-06-18T23:19:33.452Z,6.65
2023-06-18T23:22:06.658Z,6.43
2023-06-18T23:24:35.673Z,6.70
2023-06-18T23:27:03.331Z,7.00
2023-06-18T23:29:30.986Z,7.00
2023-06-18T23:31:58.272Z,6.90
2023-06-18T23:34:28.065Z,6.88
2023-06-18T23:36:59.763Z,6.47
2023-06-18T23:39:27.698Z,6.07
2023-06-18T23:41:55.257Z,6.65
2023-06-18T23:44:24.778Z,6.68
2023-06-18T23:46:55.486Z,6.90
2023-06-18T23:49:22.796Z,6.80
2023-06-18T23:51:50.376Z,6.78
2023-06-18T23:54:20.151Z,6.55
2023-06-18T23:56:49.620Z,6.78
2023-06-18T23:59:21.728Z,6.57
